sensor_id;sensor_type;location;lat;lon;timestamp;P1;durP1;ratioP1;P2;durP2;ratioP2
36243;SDS011;22284;49.956;19.816;2022-09-24T00:00:39;28.27;;;15.98;;
36243;SDS011;22284;49.956;19.816;2022-09-24T00:03:43;27.35;;;15.80;;
36243;SDS011;22284;49.956;19.816;2022-09-24T00:06:51;31.70;;;17.90;;
36243;SDS011;22284;49.956;19.816;2022-09-24T00:09:52;63.98;;;47.20;;
36243;SDS011;22284;49.956;19.816;2022-09-24T00:12:53;53.48;;;30.17;;
36243;SDS011;22284;49.956;19.816;2022-09-24T00:15:54;41.18;;;27.85;;
36243;SDS011;22284;49.956;19.816;2022-09-24T00:18:55;49.30;;;27.35;;
36243;SDS011;22284;49.956;19.816;2022-09-24T00:21:56;42.70;;;22.30;;
36243;SDS011;22284;49.956;19.816;2022-09-24T00:24:57;49.48;;;23.90;;
36243;SDS011;22284;49.956;19.816;2022-09-24T00:28:16;49.77;;;23.73;;
36243;SDS011;22284;49.956;19.816;2022-09-24T00:31:17;39.53;;;19.20;;
36243;SDS011;22284;49.956;19.816;2022-09-24T00:34:19;37.78;;;19.35;;
36243;SDS011;22284;49.956;19.816;2022-09-24T00:37:21;36.08;;;19.45;;
36243;SDS011;22284;49.956;19.816;2022-09-24T00:40:26;31.00;;;17.23;;
36243;SDS011;22284;49.956;19.816;2022-09-24T00:43:35;30.88;;;16.87;;
36243;SDS011;22284;49.956;19.816;2022-09-24T00:46:41;25.77;;;14.03;;
36243;SDS011;22284;49.956;19.816;2022-09-24T00:49:43;28.10;;;14.87;;
36243;SDS011;22284;49.956;19.816;2022-09-24T00:52:49;24.12;;;13.72;;
36243;SDS011;22284;49.956;19.816;2022-09-24T00:55:56;26.45;;;13.98;;
36243;SDS011;22284;49.956;19.816;2022-09-24T00:58:59;22.93;;;13.43;;
36243;SDS011;22284;49.956;19.816;2022-09-24T01:02:02;25.02;;;13.50;;
36243;SDS011;22284;49.956;19.816;2022-09-24T01:05:04;23.38;;;13.60;;
36243;SDS011;22284;49.956;19.816;2022-09-24T01:08:06;24.65;;;12.50;;
36243;SDS011;22284;49.956;19.816;2022-09-24T01:18:06;23.02;;;12.75;;
36243;SDS011;22284;49.956;19.816;2022-09-24T01:21:24;24.63;;;13.68;;
36243;SDS011;22284;49.956;19.816;2022-09-24T01:31:27;24.23;;;13.28;;
36243;SDS011;22284;49.956;19.816;2022-09-24T01:35:02;23.27;;;12.63;;
36243;SDS011;22284;49.956;19.816;2022-09-24T01:37:56;24.70;;;13.78;;
36243;SDS011;22284;49.956;19.816;2022-09-24T01:41:04;25.23;;;14.07;;
36243;SDS011;22284;49.956;19.816;2022-09-24T01:44:08;29.65;;;14.90;;
36243;SDS011;22284;49.956;19.816;2022-09-24T01:47:13;25.92;;;14.60;;
36243;SDS011;22284;49.956;19.816;2022-09-24T01:50:24;25.77;;;14.07;;
36243;SDS011;22284;49.956;19.816;2022-09-24T01:59:51;23.73;;;12.65;;
36243;SDS011;22284;49.956;19.816;2022-09-24T02:03:04;25.50;;;12.75;;
36243;SDS011;22284;49.956;19.816;2022-09-24T02:06:18;24.10;;;13.43;;
36243;SDS011;22284;49.956;19.816;2022-09-24T02:09:30;22.87;;;12.95;;
36243;SDS011;22284;49.956;19.816;2022-09-24T02:12:37;24.37;;;13.85;;
36243;SDS011;22284;49.956;19.816;2022-09-24T02:15:44;26.15;;;14.35;;
36243;SDS011;22284;49.956;19.816;2022-09-24T02:18:49;26.42;;;15.50;;
36243;SDS011;22284;49.956;19.816;2022-09-24T02:21:53;25.72;;;14.75;;
36243;SDS011;22284;49.956;19.816;2022-09-24T02:24:56;27.37;;;15.03;;
36243;SDS011;22284;49.956;19.816;2022-09-24T02:28:00;27.30;;;15.75;;
36243;SDS011;22284;49.956;19.816;2022-09-24T02:31:06;26.60;;;15.13;;
36243;SDS011;22284;49.956;19.816;2022-09-24T02:34:24;26.60;;;15.35;;
36243;SDS011;22284;49.956;19.816;2022-09-24T02:37:25;27.25;;;14.63;;
36243;SDS011;22284;49.956;19.816;2022-09-24T02:40:26;26.07;;;14.85;;
36243;SDS011;22284;49.956;19.816;2022-09-24T02:43:27;25.30;;;13.95;;
36243;SDS011;22284;49.956;19.816;2022-09-24T02:46:28;25.27;;;14.53;;
36243;SDS011;22284;49.956;19.816;2022-09-24T02:49:29;26.77;;;14.10;;
36243;SDS011;22284;49.956;19.816;2022-09-24T02:52:31;25.52;;;13.83;;
36243;SDS011;22284;49.956;19.816;2022-09-24T02:55:32;24.15;;;13.70;;
36243;SDS011;22284;49.956;19.816;2022-09-24T02:58:33;24.52;;;13.90;;
36243;SDS011;22284;49.956;19.816;2022-09-24T03:04:37;25.02;;;13.50;;
36243;SDS011;22284;49.956;19.816;2022-09-24T03:07:38;24.40;;;13.50;;
36243;SDS011;22284;49.956;19.816;2022-09-24T03:10:40;25.88;;;14.60;;
36243;SDS011;22284;49.956;19.816;2022-09-24T03:13:41;25.80;;;14.07;;
36243;SDS011;22284;49.956;19.816;2022-09-24T03:16:42;23.90;;;13.58;;
36243;SDS011;22284;49.956;19.816;2022-09-24T03:19:43;23.40;;;13.18;;
36243;SDS011;22284;49.956;19.816;2022-09-24T03:22:44;22.93;;;12.20;;
36243;SDS011;22284;49.956;19.816;2022-09-24T03:25:47;22.60;;;12.75;;
36243;SDS011;22284;49.956;19.816;2022-09-24T03:28:48;24.83;;;12.77;;
36243;SDS011;22284;49.956;19.816;2022-09-24T03:31:49;24.87;;;13.08;;
36243;SDS011;22284;49.956;19.816;2022-09-24T03:34:50;22.60;;;12.63;;
36243;SDS011;22284;49.956;19.816;2022-09-24T03:37:51;23.12;;;12.05;;
36243;SDS011;22284;49.956;19.816;2022-09-24T03:40:52;22.87;;;12.68;;
36243;SDS011;22284;49.956;19.816;2022-09-24T03:43:54;21.68;;;11.88;;
36243;SDS011;22284;49.956;19.816;2022-09-24T03:46:56;23.32;;;12.23;;
36243;SDS011;22284;49.956;19.816;2022-09-24T03:49:57;24.65;;;12.30;;
36243;SDS011;22284;49.956;19.816;2022-09-24T03:52:58;22.10;;;12.13;;
36243;SDS011;22284;49.956;19.816;2022-09-24T03:56:00;21.20;;;12.30;;
36243;SDS011;22284;49.956;19.816;2022-09-24T03:59:03;22.75;;;12.28;;
36243;SDS011;22284;49.956;19.816;2022-09-24T04:02:04;22.30;;;12.83;;
36243;SDS011;22284;49.956;19.816;2022-09-24T04:05:05;22.13;;;12.85;;
36243;SDS011;22284;49.956;19.816;2022-09-24T04:08:07;21.63;;;12.60;;
36243;SDS011;22284;49.956;19.816;2022-09-24T04:11:09;20.23;;;11.97;;
36243;SDS011;22284;49.956;19.816;2022-09-24T04:14:10;24.27;;;12.50;;
36243;SDS011;22284;49.956;19.816;2022-09-24T04:17:11;21.85;;;11.35;;
36243;SDS011;22284;49.956;19.816;2022-09-24T04:20:12;23.05;;;12.60;;
36243;SDS011;22284;49.956;19.816;2022-09-24T04:23:13;33.50;;;16.77;;
36243;SDS011;22284;49.956;19.816;2022-09-24T04:26:14;37.25;;;17.55;;
36243;SDS011;22284;49.956;19.816;2022-09-24T04:29:16;30.30;;;14.63;;
36243;SDS011;22284;49.956;19.816;2022-09-24T04:32:18;23.65;;;12.10;;
36243;SDS011;22284;49.956;19.816;2022-09-24T04:35:19;24.07;;;12.78;;
36243;SDS011;22284;49.956;19.816;2022-09-24T04:38:22;21.70;;;12.28;;
36243;SDS011;22284;49.956;19.816;2022-09-24T04:41:23;22.90;;;12.27;;
36243;SDS011;22284;49.956;19.816;2022-09-24T04:44:25;23.98;;;13.28;;
36243;SDS011;22284;49.956;19.816;2022-09-24T04:47:27;21.65;;;11.70;;
36243;SDS011;22284;49.956;19.816;2022-09-24T04:50:28;23.90;;;12.18;;
36243;SDS011;22284;49.956;19.816;2022-09-24T04:53:34;24.60;;;12.13;;
36243;SDS011;22284;49.956;19.816;2022-09-24T04:56:36;24.57;;;13.05;;
36243;SDS011;22284;49.956;19.816;2022-09-24T04:59:37;23.50;;;12.05;;
36243;SDS011;22284;49.956;19.816;2022-09-24T05:02:38;23.12;;;12.82;;
36243;SDS011;22284;49.956;19.816;2022-09-24T05:05:40;20.77;;;12.53;;
36243;SDS011;22284;49.956;19.816;2022-09-24T05:08:41;22.98;;;12.10;;
36243;SDS011;22284;49.956;19.816;2022-09-24T05:11:42;22.75;;;13.40;;
36243;SDS011;22284;49.956;19.816;2022-09-24T05:14:43;29.82;;;15.32;;
36243;SDS011;22284;49.956;19.816;2022-09-24T05:17:44;30.23;;;16.07;;
36243;SDS011;22284;49.956;19.816;2022-09-24T05:20:46;30.00;;;14.95;;
36243;SDS011;22284;49.956;19.816;2022-09-24T05:23:47;25.52;;;12.40;;
36243;SDS011;22284;49.956;19.816;2022-09-24T05:26:48;22.58;;;11.38;;
36243;SDS011;22284;49.956;19.816;2022-09-24T05:30:08;22.32;;;11.20;;
36243;SDS011;22284;49.956;19.816;2022-09-24T05:33:10;22.67;;;11.50;;
36243;SDS011;22284;49.956;19.816;2022-09-24T05:36:11;21.48;;;11.75;;
36243;SDS011;22284;49.956;19.816;2022-09-24T05:39:12;21.35;;;10.88;;
36243;SDS011;22284;49.956;19.816;2022-09-24T05:42:13;22.20;;;11.90;;
36243;SDS011;22284;49.956;19.816;2022-09-24T05:45:14;23.92;;;12.55;;
36243;SDS011;22284;49.956;19.816;2022-09-24T05:48:17;24.80;;;13.62;;
36243;SDS011;22284;49.956;19.816;2022-09-24T05:51:18;23.67;;;12.80;;
36243;SDS011;22284;49.956;19.816;2022-09-24T05:54:19;22.35;;;12.37;;
36243;SDS011;22284;49.956;19.816;2022-09-24T05:57:20;23.10;;;13.75;;
36243;SDS011;22284;49.956;19.816;2022-09-24T06:00:22;24.72;;;13.22;;
36243;SDS011;22284;49.956;19.816;2022-09-24T06:03:23;24.70;;;13.32;;
36243;SDS011;22284;49.956;19.816;2022-09-24T06:06:24;24.75;;;13.50;;
36243;SDS011;22284;49.956;19.816;2022-09-24T06:09:26;22.45;;;13.48;;
36243;SDS011;22284;49.956;19.816;2022-09-24T06:12:27;24.15;;;14.13;;
36243;SDS011;22284;49.956;19.816;2022-09-24T06:15:28;23.20;;;13.45;;
36243;SDS011;22284;49.956;19.816;2022-09-24T06:18:32;24.32;;;13.58;;
36243;SDS011;22284;49.956;19.816;2022-09-24T06:21:34;23.90;;;13.72;;
36243;SDS011;22284;49.956;19.816;2022-09-24T06:24:35;23.00;;;14.07;;
36243;SDS011;22284;49.956;19.816;2022-09-24T06:27:36;21.57;;;12.25;;
36243;SDS011;22284;49.956;19.816;2022-09-24T06:30:37;23.95;;;12.40;;
36243;SDS011;22284;49.956;19.816;2022-09-24T06:33:39;25.82;;;13.13;;
36243;SDS011;22284;49.956;19.816;2022-09-24T06:36:40;22.77;;;12.95;;
36243;SDS011;22284;49.956;19.816;2022-09-24T06:39:41;24.80;;;13.68;;
36243;SDS011;22284;49.956;19.816;2022-09-24T06:42:42;22.45;;;13.98;;
36243;SDS011;22284;49.956;19.816;2022-09-24T06:45:44;25.85;;;14.87;;
36243;SDS011;22284;49.956;19.816;2022-09-24T06:48:46;23.30;;;13.55;;
36243;SDS011;22284;49.956;19.816;2022-09-24T06:54:50;22.17;;;14.03;;
36243;SDS011;22284;49.956;19.816;2022-09-24T06:58:00;25.30;;;14.75;;
36243;SDS011;22284;49.956;19.816;2022-09-24T07:01:10;30.92;;;15.98;;
36243;SDS011;22284;49.956;19.816;2022-09-24T07:04:11;29.65;;;16.23;;
36243;SDS011;22284;49.956;19.816;2022-09-24T07:07:12;27.25;;;15.83;;
36243;SDS011;22284;49.956;19.816;2022-09-24T07:10:31;32.33;;;19.95;;
36243;SDS011;22284;49.956;19.816;2022-09-24T07:13:32;33.05;;;18.95;;
36243;SDS011;22284;49.956;19.816;2022-09-24T07:16:33;29.07;;;16.65;;
36243;SDS011;22284;49.956;19.816;2022-09-24T07:19:34;32.30;;;17.95;;
36243;SDS011;22284;49.956;19.816;2022-09-24T07:22:39;31.33;;;16.17;;
36243;SDS011;22284;49.956;19.816;2022-09-24T07:25:42;26.35;;;16.82;;
36243;SDS011;22284;49.956;19.816;2022-09-24T07:28:45;27.83;;;16.97;;
36243;SDS011;22284;49.956;19.816;2022-09-24T07:31:46;29.23;;;16.35;;
36243;SDS011;22284;49.956;19.816;2022-09-24T07:34:47;28.47;;;17.52;;
36243;SDS011;22284;49.956;19.816;2022-09-24T07:37:54;29.45;;;17.98;;
36243;SDS011;22284;49.956;19.816;2022-09-24T07:41:01;30.70;;;18.70;;
36243;SDS011;22284;49.956;19.816;2022-09-24T07:44:07;32.50;;;18.57;;
36243;SDS011;22284;49.956;19.816;2022-09-24T07:47:09;29.80;;;17.57;;
36243;SDS011;22284;49.956;19.816;2022-09-24T07:50:10;30.37;;;18.25;;
36243;SDS011;22284;49.956;19.816;2022-09-24T07:53:13;33.40;;;20.15;;
36243;SDS011;22284;49.956;19.816;2022-09-24T07:56:14;29.27;;;18.35;;
36243;SDS011;22284;49.956;19.816;2022-09-24T07:59:15;28.02;;;17.50;;
36243;SDS011;22284;49.956;19.816;2022-09-24T08:02:18;32.05;;;18.62;;
36243;SDS011;22284;49.956;19.816;2022-09-24T08:05:19;29.02;;;17.98;;
36243;SDS011;22284;49.956;19.816;2022-09-24T08:08:21;38.95;;;25.02;;
36243;SDS011;22284;49.956;19.816;2022-09-24T08:11:22;31.70;;;19.30;;
36243;SDS011;22284;49.956;19.816;2022-09-24T08:14:24;29.37;;;18.00;;
36243;SDS011;22284;49.956;19.816;2022-09-24T08:17:26;29.90;;;18.20;;
36243;SDS011;22284;49.956;19.816;2022-09-24T08:20:27;30.05;;;19.57;;
36243;SDS011;22284;49.956;19.816;2022-09-24T08:23:30;27.80;;;19.02;;
36243;SDS011;22284;49.956;19.816;2022-09-24T08:26:34;33.38;;;21.25;;
36243;SDS011;22284;49.956;19.816;2022-09-24T08:29:35;30.75;;;19.42;;
36243;SDS011;22284;49.956;19.816;2022-09-24T08:32:37;29.95;;;18.25;;
36243;SDS011;22284;49.956;19.816;2022-09-24T08:35:38;26.93;;;17.98;;
36243;SDS011;22284;49.956;19.816;2022-09-24T08:38:39;32.08;;;18.00;;
36243;SDS011;22284;49.956;19.816;2022-09-24T08:41:54;31.45;;;18.42;;
36243;SDS011;22284;49.956;19.816;2022-09-24T08:44:59;28.62;;;17.27;;
36243;SDS011;22284;49.956;19.816;2022-09-24T08:48:20;27.13;;;17.35;;
36243;SDS011;22284;49.956;19.816;2022-09-24T08:51:25;29.23;;;17.57;;
36243;SDS011;22284;49.956;19.816;2022-09-24T08:54:31;26.52;;;16.37;;
36243;SDS011;22284;49.956;19.816;2022-09-24T08:57:47;35.80;;;21.25;;
36243;SDS011;22284;49.956;19.816;2022-09-24T09:04:23;24.95;;;15.48;;
36243;SDS011;22284;49.956;19.816;2022-09-24T09:11:00;35.17;;;18.23;;
36243;SDS011;22284;49.956;19.816;2022-09-24T09:14:11;30.57;;;17.55;;
36243;SDS011;22284;49.956;19.816;2022-09-24T09:17:28;22.82;;;13.43;;
36243;SDS011;22284;49.956;19.816;2022-09-24T09:23:47;35.05;;;19.37;;
36243;SDS011;22284;49.956;19.816;2022-09-24T09:26:50;25.62;;;14.30;;
36243;SDS011;22284;49.956;19.816;2022-09-24T09:29:55;23.47;;;12.82;;
36243;SDS011;22284;49.956;19.816;2022-09-24T09:43:14;16.42;;;9.98;;
36243;SDS011;22284;49.956;19.816;2022-09-24T09:49:22;17.57;;;9.48;;
36243;SDS011;22284;49.956;19.816;2022-09-24T09:52:28;17.35;;;9.78;;
36243;SDS011;22284;49.956;19.816;2022-09-24T09:55:33;17.65;;;9.85;;
36243;SDS011;22284;49.956;19.816;2022-09-24T09:58:38;17.77;;;9.63;;
36243;SDS011;22284;49.956;19.816;2022-09-24T10:01:44;15.50;;;9.03;;
36243;SDS011;22284;49.956;19.816;2022-09-24T10:04:56;14.33;;;8.45;;
36243;SDS011;22284;49.956;19.816;2022-09-24T10:07:59;18.15;;;9.38;;
36243;SDS011;22284;49.956;19.816;2022-09-24T10:11:01;14.23;;;8.00;;
36243;SDS011;22284;49.956;19.816;2022-09-24T10:14:04;12.98;;;7.42;;
36243;SDS011;22284;49.956;19.816;2022-09-24T10:17:15;18.35;;;8.28;;
36243;SDS011;22284;49.956;19.816;2022-09-24T10:20:17;13.08;;;6.55;;
36243;SDS011;22284;49.956;19.816;2022-09-24T10:23:36;11.33;;;6.10;;
36243;SDS011;22284;49.956;19.816;2022-09-24T10:26:42;6.78;;;4.75;;
36243;SDS011;22284;49.956;19.816;2022-09-24T10:29:45;7.60;;;4.20;;
36243;SDS011;22284;49.956;19.816;2022-09-24T10:33:05;4.75;;;3.60;;
36243;SDS011;22284;49.956;19.816;2022-09-24T10:39:25;6.60;;;3.70;;
36243;SDS011;22284;49.956;19.816;2022-09-24T10:42:28;4.90;;;3.63;;
36243;SDS011;22284;49.956;19.816;2022-09-24T11:06:13;7.17;;;4.00;;
36243;SDS011;22284;49.956;19.816;2022-09-24T11:13:02;5.70;;;3.75;;
36243;SDS011;22284;49.956;19.816;2022-09-24T11:16:19;8.13;;;4.05;;
36243;SDS011;22284;49.956;19.816;2022-09-24T11:26:50;7.15;;;4.03;;
36243;SDS011;22284;49.956;19.816;2022-09-24T11:30:18;6.97;;;3.98;;
36243;SDS011;22284;49.956;19.816;2022-09-24T11:33:27;7.42;;;3.50;;
36243;SDS011;22284;49.956;19.816;2022-09-24T11:40:28;3.65;;;2.85;;
36243;SDS011;22284;49.956;19.816;2022-09-24T11:47:43;4.58;;;2.40;;
36243;SDS011;22284;49.956;19.816;2022-09-24T11:58:34;3.10;;;2.62;;
36243;SDS011;22284;49.956;19.816;2022-09-24T12:01:49;3.58;;;2.40;;
36243;SDS011;22284;49.956;19.816;2022-09-24T12:05:11;2.80;;;2.50;;
36243;SDS011;22284;49.956;19.816;2022-09-24T12:08:18;2.45;;;1.90;;
36243;SDS011;22284;49.956;19.816;2022-09-24T12:11:34;2.83;;;2.35;;
36243;SDS011;22284;49.956;19.816;2022-09-24T12:18:02;3.12;;;2.25;;
36243;SDS011;22284;49.956;19.816;2022-09-24T12:21:06;3.42;;;2.20;;
36243;SDS011;22284;49.956;19.816;2022-09-24T12:24:20;2.42;;;2.08;;
36243;SDS011;22284;49.956;19.816;2022-09-24T12:27:36;3.70;;;2.70;;
36243;SDS011;22284;49.956;19.816;2022-09-24T12:34:21;2.65;;;2.37;;
36243;SDS011;22284;49.956;19.816;2022-09-24T12:37:32;3.87;;;2.70;;
36243;SDS011;22284;49.956;19.816;2022-09-24T12:40:53;3.40;;;2.60;;
36243;SDS011;22284;49.956;19.816;2022-09-24T12:44:18;7.20;;;2.75;;
36243;SDS011;22284;49.956;19.816;2022-09-24T12:47:31;5.15;;;2.92;;
36243;SDS011;22284;49.956;19.816;2022-09-24T12:50:34;4.80;;;3.22;;
36243;SDS011;22284;49.956;19.816;2022-09-24T12:53:40;4.90;;;3.12;;
36243;SDS011;22284;49.956;19.816;2022-09-24T12:56:43;3.67;;;2.70;;
36243;SDS011;22284;49.956;19.816;2022-09-24T12:59:46;6.45;;;3.15;;
36243;SDS011;22284;49.956;19.816;2022-09-24T13:02:53;4.55;;;2.90;;
36243;SDS011;22284;49.956;19.816;2022-09-24T13:05:55;5.35;;;3.15;;
36243;SDS011;22284;49.956;19.816;2022-09-24T13:12:04;5.53;;;3.15;;
36243;SDS011;22284;49.956;19.816;2022-09-24T13:15:06;5.45;;;3.15;;
36243;SDS011;22284;49.956;19.816;2022-09-24T13:18:19;8.53;;;3.77;;
36243;SDS011;22284;49.956;19.816;2022-09-24T13:21:28;3.77;;;2.62;;
36243;SDS011;22284;49.956;19.816;2022-09-24T13:24:32;5.50;;;2.60;;
36243;SDS011;22284;49.956;19.816;2022-09-24T13:27:40;5.90;;;3.00;;
36243;SDS011;22284;49.956;19.816;2022-09-24T13:30:42;4.55;;;2.90;;
36243;SDS011;22284;49.956;19.816;2022-09-24T13:33:47;3.83;;;2.77;;
36243;SDS011;22284;49.956;19.816;2022-09-24T13:40:17;4.15;;;2.60;;
36243;SDS011;22284;49.956;19.816;2022-09-24T13:46:43;5.62;;;3.37;;
36243;SDS011;22284;49.956;19.816;2022-09-24T13:49:46;8.43;;;4.00;;
36243;SDS011;22284;49.956;19.816;2022-09-24T13:53:02;4.42;;;2.90;;
36243;SDS011;22284;49.956;19.816;2022-09-24T13:56:10;3.80;;;2.95;;
36243;SDS011;22284;49.956;19.816;2022-09-24T13:59:14;6.47;;;3.55;;
36243;SDS011;22284;49.956;19.816;2022-09-24T14:02:23;6.03;;;3.22;;
36243;SDS011;22284;49.956;19.816;2022-09-24T14:05:27;4.40;;;3.20;;
36243;SDS011;22284;49.956;19.816;2022-09-24T14:08:32;5.33;;;3.20;;
36243;SDS011;22284;49.956;19.816;2022-09-24T14:11:35;6.35;;;3.47;;
36243;SDS011;22284;49.956;19.816;2022-09-24T14:14:36;4.67;;;3.02;;
36243;SDS011;22284;49.956;19.816;2022-09-24T14:18:00;5.72;;;3.52;;
36243;SDS011;22284;49.956;19.816;2022-09-24T14:21:00;4.37;;;3.45;;
36243;SDS011;22284;49.956;19.816;2022-09-24T14:24:16;7.15;;;3.22;;
36243;SDS011;22284;49.956;19.816;2022-09-24T14:27:22;3.45;;;2.75;;
36243;SDS011;22284;49.956;19.816;2022-09-24T14:30:26;5.75;;;3.37;;
36243;SDS011;22284;49.956;19.816;2022-09-24T14:33:30;5.40;;;3.27;;
36243;SDS011;22284;49.956;19.816;2022-09-24T14:36:33;5.25;;;3.17;;
36243;SDS011;22284;49.956;19.816;2022-09-24T14:39:37;3.92;;;3.10;;
36243;SDS011;22284;49.956;19.816;2022-09-24T14:42:52;3.95;;;3.10;;
36243;SDS011;22284;49.956;19.816;2022-09-24T14:46:03;6.08;;;3.83;;
36243;SDS011;22284;49.956;19.816;2022-09-24T14:49:31;6.28;;;3.37;;
36243;SDS011;22284;49.956;19.816;2022-09-24T14:52:43;5.62;;;3.67;;
36243;SDS011;22284;49.956;19.816;2022-09-24T14:55:48;7.05;;;3.72;;
36243;SDS011;22284;49.956;19.816;2022-09-24T14:58:50;6.33;;;3.80;;
36243;SDS011;22284;49.956;19.816;2022-09-24T15:01:54;14.10;;;7.15;;
36243;SDS011;22284;49.956;19.816;2022-09-24T15:05:06;8.78;;;4.70;;
36243;SDS011;22284;49.956;19.816;2022-09-24T15:08:14;7.55;;;4.35;;
36243;SDS011;22284;49.956;19.816;2022-09-24T15:11:22;6.80;;;4.33;;
36243;SDS011;22284;49.956;19.816;2022-09-24T15:14:31;6.30;;;3.98;;
36243;SDS011;22284;49.956;19.816;2022-09-24T15:17:34;6.60;;;3.90;;
36243;SDS011;22284;49.956;19.816;2022-09-24T15:20:35;5.77;;;3.60;;
36243;SDS011;22284;49.956;19.816;2022-09-24T15:23:37;5.00;;;3.43;;
36243;SDS011;22284;49.956;19.816;2022-09-24T15:26:39;5.47;;;3.70;;
36243;SDS011;22284;49.956;19.816;2022-09-24T15:29:45;5.37;;;3.42;;
36243;SDS011;22284;49.956;19.816;2022-09-24T15:32:46;7.75;;;4.33;;
36243;SDS011;22284;49.956;19.816;2022-09-24T15:35:51;7.85;;;4.15;;
36243;SDS011;22284;49.956;19.816;2022-09-24T15:38:58;6.70;;;4.20;;
36243;SDS011;22284;49.956;19.816;2022-09-24T15:42:00;9.13;;;4.53;;
36243;SDS011;22284;49.956;19.816;2022-09-24T15:45:01;7.30;;;4.37;;
36243;SDS011;22284;49.956;19.816;2022-09-24T15:48:05;6.67;;;3.90;;
36243;SDS011;22284;49.956;19.816;2022-09-24T15:51:08;6.10;;;4.22;;
36243;SDS011;22284;49.956;19.816;2022-09-24T15:54:11;9.85;;;4.55;;
36243;SDS011;22284;49.956;19.816;2022-09-24T15:57:12;11.55;;;5.22;;
36243;SDS011;22284;49.956;19.816;2022-09-24T16:00:17;10.78;;;5.58;;
36243;SDS011;22284;49.956;19.816;2022-09-24T16:03:22;10.03;;;5.45;;
36243;SDS011;22284;49.956;19.816;2022-09-24T16:06:27;9.33;;;4.83;;
36243;SDS011;22284;49.956;19.816;2022-09-24T16:09:29;13.00;;;6.10;;
36243;SDS011;22284;49.956;19.816;2022-09-24T16:12:30;22.98;;;11.55;;
36243;SDS011;22284;49.956;19.816;2022-09-24T16:15:31;40.55;;;23.83;;
36243;SDS011;22284;49.956;19.816;2022-09-24T16:18:32;28.40;;;15.43;;
36243;SDS011;22284;49.956;19.816;2022-09-24T16:21:35;51.50;;;30.12;;
36243;SDS011;22284;49.956;19.816;2022-09-24T16:24:36;18.75;;;9.53;;
36243;SDS011;22284;49.956;19.816;2022-09-24T16:27:37;10.20;;;5.62;;
36243;SDS011;22284;49.956;19.816;2022-09-24T16:30:38;7.75;;;4.53;;
36243;SDS011;22284;49.956;19.816;2022-09-24T16:33:39;27.05;;;19.32;;
36243;SDS011;22284;49.956;19.816;2022-09-24T16:36:41;22.30;;;11.90;;
36243;SDS011;22284;49.956;19.816;2022-09-24T16:39:42;20.40;;;10.20;;
36243;SDS011;22284;49.956;19.816;2022-09-24T16:42:43;17.73;;;9.00;;
36243;SDS011;22284;49.956;19.816;2022-09-24T16:45:44;18.57;;;9.87;;
36243;SDS011;22284;49.956;19.816;2022-09-24T16:48:47;17.42;;;8.88;;
36243;SDS011;22284;49.956;19.816;2022-09-24T16:51:49;12.45;;;7.72;;
36243;SDS011;22284;49.956;19.816;2022-09-24T16:54:50;25.43;;;14.38;;
36243;SDS011;22284;49.956;19.816;2022-09-24T16:57:52;44.20;;;26.90;;
36243;SDS011;22284;49.956;19.816;2022-09-24T17:00:53;46.98;;;27.60;;
36243;SDS011;22284;49.956;19.816;2022-09-24T17:03:56;53.40;;;29.35;;
36243;SDS011;22284;49.956;19.816;2022-09-24T17:06:58;44.58;;;25.97;;
36243;SDS011;22284;49.956;19.816;2022-09-24T17:10:00;32.05;;;18.02;;
36243;SDS011;22284;49.956;19.816;2022-09-24T17:13:13;23.73;;;13.83;;
36243;SDS011;22284;49.956;19.816;2022-09-24T17:16:15;22.00;;;11.73;;
36243;SDS011;22284;49.956;19.816;2022-09-24T17:19:17;23.20;;;13.13;;
36243;SDS011;22284;49.956;19.816;2022-09-24T17:22:18;22.52;;;12.53;;
36243;SDS011;22284;49.956;19.816;2022-09-24T17:25:19;21.45;;;12.37;;
36243;SDS011;22284;49.956;19.816;2022-09-24T17:28:20;19.30;;;11.40;;
36243;SDS011;22284;49.956;19.816;2022-09-24T17:31:22;21.95;;;11.18;;
36243;SDS011;22284;49.956;19.816;2022-09-24T17:34:24;21.12;;;11.78;;
36243;SDS011;22284;49.956;19.816;2022-09-24T17:37:27;21.60;;;11.73;;
36243;SDS011;22284;49.956;19.816;2022-09-24T17:40:28;22.65;;;12.73;;
36243;SDS011;22284;49.956;19.816;2022-09-24T17:43:29;29.40;;;15.08;;
36243;SDS011;22284;49.956;19.816;2022-09-24T17:46:31;25.85;;;15.15;;
36243;SDS011;22284;49.956;19.816;2022-09-24T17:49:34;28.35;;;15.32;;
36243;SDS011;22284;49.956;19.816;2022-09-24T17:52:35;24.47;;;13.90;;
36243;SDS011;22284;49.956;19.816;2022-09-24T17:55:36;27.82;;;16.40;;
36243;SDS011;22284;49.956;19.816;2022-09-24T17:58:38;29.77;;;17.60;;
36243;SDS011;22284;49.956;19.816;2022-09-24T18:01:42;31.48;;;17.77;;
36243;SDS011;22284;49.956;19.816;2022-09-24T18:04:44;33.02;;;18.30;;
36243;SDS011;22284;49.956;19.816;2022-09-24T18:07:46;33.02;;;19.57;;
36243;SDS011;22284;49.956;19.816;2022-09-24T18:10:47;47.00;;;32.65;;
36243;SDS011;22284;49.956;19.816;2022-09-24T18:14:06;32.20;;;19.57;;
36243;SDS011;22284;49.956;19.816;2022-09-24T18:17:10;32.45;;;19.20;;
36243;SDS011;22284;49.956;19.816;2022-09-24T18:20:11;29.87;;;17.95;;
36243;SDS011;22284;49.956;19.816;2022-09-24T18:23:13;28.50;;;16.97;;
36243;SDS011;22284;49.956;19.816;2022-09-24T18:26:20;28.38;;;16.30;;
36243;SDS011;22284;49.956;19.816;2022-09-24T18:29:25;31.02;;;16.77;;
36243;SDS011;22284;49.956;19.816;2022-09-24T18:32:27;33.25;;;19.25;;
36243;SDS011;22284;49.956;19.816;2022-09-24T18:35:29;29.00;;;17.00;;
36243;SDS011;22284;49.956;19.816;2022-09-24T18:38:30;30.40;;;16.75;;
36243;SDS011;22284;49.956;19.816;2022-09-24T18:41:31;30.50;;;17.37;;
36243;SDS011;22284;49.956;19.816;2022-09-24T18:44:33;35.40;;;20.45;;
36243;SDS011;22284;49.956;19.816;2022-09-24T18:47:35;31.48;;;19.50;;
36243;SDS011;22284;49.956;19.816;2022-09-24T18:50:41;33.18;;;19.87;;
36243;SDS011;22284;49.956;19.816;2022-09-24T18:53:49;36.77;;;20.77;;
36243;SDS011;22284;49.956;19.816;2022-09-24T18:56:53;36.00;;;20.75;;
36243;SDS011;22284;49.956;19.816;2022-09-24T18:59:56;39.27;;;22.22;;
36243;SDS011;22284;49.956;19.816;2022-09-24T19:02:57;37.78;;;22.27;;
36243;SDS011;22284;49.956;19.816;2022-09-24T19:06:00;36.42;;;20.88;;
36243;SDS011;22284;49.956;19.816;2022-09-24T19:09:03;37.67;;;21.60;;
36243;SDS011;22284;49.956;19.816;2022-09-24T19:12:06;35.23;;;20.87;;
36243;SDS011;22284;49.956;19.816;2022-09-24T19:15:08;34.75;;;18.92;;
36243;SDS011;22284;49.956;19.816;2022-09-24T19:18:11;29.87;;;16.93;;
36243;SDS011;22284;49.956;19.816;2022-09-24T19:21:14;31.90;;;16.37;;
36243;SDS011;22284;49.956;19.816;2022-09-24T19:24:16;29.98;;;16.75;;
36243;SDS011;22284;49.956;19.816;2022-09-24T19:27:18;37.95;;;23.55;;
36243;SDS011;22284;49.956;19.816;2022-09-24T19:30:19;36.98;;;21.90;;
36243;SDS011;22284;49.956;19.816;2022-09-24T19:33:20;35.00;;;21.40;;
36243;SDS011;22284;49.956;19.816;2022-09-24T19:36:22;36.83;;;21.75;;
36243;SDS011;22284;49.956;19.816;2022-09-24T19:39:23;36.00;;;21.65;;
36243;SDS011;22284;49.956;19.816;2022-09-24T19:42:24;35.35;;;21.75;;
36243;SDS011;22284;49.956;19.816;2022-09-24T19:45:26;33.73;;;21.17;;
36243;SDS011;22284;49.956;19.816;2022-09-24T19:48:28;35.28;;;21.27;;